sensor_id;sensor_type;location;lat;lon;timestamp;pressure;altitude;pressure_sealevel;temperature;humidity
41830;BME280;38614;43.472;23.936;2023-03-13T00:02:37;100736.00;;;-1.16;100.00
41830;BME280;38614;43.472;23.936;2023-03-13T00:05:24;100732.41;;;-1.31;100.00
41830;BME280;38614;43.472;23.936;2023-03-13T00:08:12;100732.09;;;-1.40;100.00
41830;BME280;38614;43.472;23.936;2023-03-13T00:11:05;100719.66;;;-1.36;100.00
41830;BME280;38614;43.472;23.936;2023-03-13T00:13:57;100723.25;;;-1.20;100.00
41830;BME280;38614;43.472;23.936;2023-03-13T00:16:45;100710.94;;;-1.43;100.00
41830;BME280;38614;43.472;23.936;2023-03-13T00:19:33;100729.66;;;-1.47;100.00
41830;BME280;38614;43.472;23.936;2023-03-13T00:22:20;100725.81;;;-1.56;100.00
41830;BME280;38614;43.472;23.936;2023-03-13T00:25:08;100731.25;;;-1.51;100.00
41830;BME280;38614;43.472;23.936;2023-03-13T00:27:56;100732.34;;;-1.52;100.00
41830;BME280;38614;43.472;23.936;2023-03-13T00:30:43;100728.53;;;-1.51;100.00
41830;BME280;38614;43.472;23.936;2023-03-13T00:33:35;100723.69;;;-1.49;100.00
41830;BME280;38614;43.472;23.936;2023-03-13T00:36:25;100727.16;;;-1.58;100.00
41830;BME280;38614;43.472;23.936;2023-03-13T00:39:13;100732.88;;;-1.55;100.00
41830;BME280;38614;43.472;23.936;2023-03-13T00:42:03;100723.63;;;-1.59;100.00
41830;BME280;38614;43.472;23.936;2023-03-13T00:44:51;100728.53;;;-1.51;100.00
41830;BME280;38614;43.472;23.936;2023-03-13T00:47:39;100711.41;;;-1.66;100.00
41830;BME280;38614;43.472;23.936;2023-03-13T00:50:28;100729.03;;;-1.59;100.00
41830;BME280;38614;43.472;23.936;2023-03-13T00:53:16;100733.91;;;-1.66;100.00
41830;BME280;38614;43.472;23.936;2023-03-13T00:56:05;100734.38;;;-1.79;100.00
41830;BME280;38614;43.472;23.936;2023-03-13T00:58:53;100718.09;;;-1.84;100.00
41830;BME280;38614;43.472;23.936;2023-03-13T01:01:41;100732.59;;;-1.53;100.00
41830;BME280;38614;43.472;23.936;2023-03-13T01:04:29;100742.97;;;-1.35;100.00
41830;BME280;38614;43.472;23.936;2023-03-13T01:07:16;100744.53;;;-1.49;100.00
41830;BME280;38614;43.472;23.936;2023-03-13T01:10:10;100733.41;;;-1.58;100.00
41830;BME280;38614;43.472;23.936;2023-03-13T01:12:58;100726.09;;;-1.57;100.00
41830;BME280;38614;43.472;23.936;2023-03-13T01:15:46;100718.50;;;-1.55;100.00
41830;BME280;38614;43.472;23.936;2023-03-13T01:18:35;100727.72;;;-1.51;100.00
41830;BME280;38614;43.472;23.936;2023-03-13T01:21:24;100698.63;;;-1.76;100.00
41830;BME280;38614;43.472;23.936;2023-03-13T01:24:12;100741.00;;;-1.55;100.00
41830;BME280;38614;43.472;23.936;2023-03-13T01:27:00;100737.41;;;-1.70;100.00
41830;BME280;38614;43.472;23.936;2023-03-13T01:29:47;100699.84;;;-2.04;100.00
41830;BME280;38614;43.472;23.936;2023-03-13T01:32:35;100737.34;;;-1.81;100.00
41830;BME280;38614;43.472;23.936;2023-03-13T01:35:23;100732.94;;;-1.92;100.00
41830;BME280;38614;43.472;23.936;2023-03-13T01:38:11;100739.19;;;-1.91;100.00
41830;BME280;38614;43.472;23.936;2023-03-13T01:40:59;100745.47;;;-1.81;100.00
41830;BME280;38614;43.472;23.936;2023-03-13T01:43:47;100747.91;;;-1.79;100.00
41830;BME280;38614;43.472;23.936;2023-03-13T01:46:35;100743.63;;;-1.75;100.00
41830;BME280;38614;43.472;23.936;2023-03-13T01:49:30;100708.06;;;-1.84;100.00
41830;BME280;38614;43.472;23.936;2023-03-13T01:52:28;100725.41;;;-1.85;100.00
41830;BME280;38614;43.472;23.936;2023-03-13T01:55:38;100732.16;;;-1.87;100.00
41830;BME280;38614;43.472;23.936;2023-03-13T01:58:27;100741.84;;;-1.96;100.00
41830;BME280;38614;43.472;23.936;2023-03-13T02:01:17;100730.94;;;-2.07;100.00
41830;BME280;38614;43.472;23.936;2023-03-13T02:04:05;100735.59;;;-2.02;100.00
41830;BME280;38614;43.472;23.936;2023-03-13T02:06:55;100740.47;;;-1.99;100.00
41830;BME280;38614;43.472;23.936;2023-03-13T02:09:47;100716.78;;;-2.19;100.00
41830;BME280;38614;43.472;23.936;2023-03-13T02:12:39;100755.09;;;-2.00;100.00
41830;BME280;38614;43.472;23.936;2023-03-13T02:15:27;100736.31;;;-2.17;100.00
41830;BME280;38614;43.472;23.936;2023-03-13T02:18:17;100772.50;;;-1.91;100.00
41830;BME280;38614;43.472;23.936;2023-03-13T02:21:10;100777.91;;;-1.91;100.00
41830;BME280;38614;43.472;23.936;2023-03-13T02:26:54;100783.25;;;-2.01;100.00
41830;BME280;38614;43.472;23.936;2023-03-13T02:29:43;100782.06;;;-2.15;100.00
41830;BME280;38614;43.472;23.936;2023-03-13T02:32:32;100796.47;;;-2.10;100.00
41830;BME280;38614;43.472;23.936;2023-03-13T02:35:21;100792.75;;;-2.04;100.00
41830;BME280;38614;43.472;23.936;2023-03-13T02:38:14;100796.25;;;-2.03;100.00
41830;BME280;38614;43.472;23.936;2023-03-13T02:41:05;100804.03;;;-2.12;100.00
41830;BME280;38614;43.472;23.936;2023-03-13T02:43:52;100798.56;;;-2.17;100.00
41830;BME280;38614;43.472;23.936;2023-03-13T02:46:45;100802.91;;;-2.16;100.00
41830;BME280;38614;43.472;23.936;2023-03-13T02:49:35;100802.41;;;-2.13;100.00
41830;BME280;38614;43.472;23.936;2023-03-13T02:52:26;100813.41;;;-2.24;100.00
41830;BME280;38614;43.472;23.936;2023-03-13T02:55:59;100815.53;;;-2.32;100.00
41830;BME280;38614;43.472;23.936;2023-03-13T02:58:41;100836.47;;;-2.22;100.00
41830;BME280;38614;43.472;23.936;2023-03-13T03:01:38;100832.66;;;-2.21;100.00
41830;BME280;38614;43.472;23.936;2023-03-13T03:04:26;100836.47;;;-2.22;100.00
41830;BME280;38614;43.472;23.936;2023-03-13T03:07:15;100842.00;;;-2.34;100.00
41830;BME280;38614;43.472;23.936;2023-03-13T03:10:04;100836.75;;;-2.45;100.00
41830;BME280;38614;43.472;23.936;2023-03-13T03:12:54;100844.84;;;-2.50;100.00
41830;BME280;38614;43.472;23.936;2023-03-13T03:15:42;100841.38;;;-2.46;100.00
41830;BME280;38614;43.472;23.936;2023-03-13T03:18:34;100822.47;;;-2.68;100.00
41830;BME280;38614;43.472;23.936;2023-03-13T03:21:23;100868.59;;;-2.58;100.00
41830;BME280;38614;43.472;23.936;2023-03-13T03:24:11;100846.59;;;-2.61;100.00
41830;BME280;38614;43.472;23.936;2023-03-13T03:26:59;100862.09;;;-2.56;100.00
41830;BME280;38614;43.472;23.936;2023-03-13T03:29:54;100839.72;;;-2.74;100.00
41830;BME280;38614;43.472;23.936;2023-03-13T03:32:41;100830.38;;;-2.61;100.00
41830;BME280;38614;43.472;23.936;2023-03-13T03:35:29;100873.31;;;-2.43;100.00
41830;BME280;38614;43.472;23.936;2023-03-13T03:38:17;100881.84;;;-2.56;100.00
41830;BME280;38614;43.472;23.936;2023-03-13T03:41:06;100863.44;;;-2.81;100.00
41830;BME280;38614;43.472;23.936;2023-03-13T03:43:57;100895.28;;;-2.66;100.00
41830;BME280;38614;43.472;23.936;2023-03-13T03:46:52;100904.72;;;-2.69;100.00
41830;BME280;38614;43.472;23.936;2023-03-13T03:49:41;100908.34;;;-2.80;100.00
41830;BME280;38614;43.472;23.936;2023-03-13T03:52:31;100924.56;;;-2.80;100.00
41830;BME280;38614;43.472;23.936;2023-03-13T03:55:19;100928.44;;;-2.76;100.00
41830;BME280;38614;43.472;23.936;2023-03-13T03:58:07;100919.63;;;-2.88;100.00
41830;BME280;38614;43.472;23.936;2023-03-13T04:01:21;100941.88;;;-2.81;100.00
41830;BME280;38614;43.472;23.936;2023-03-13T04:04:13;100938.91;;;-2.79;100.00
41830;BME280;38614;43.472;23.936;2023-03-13T04:07:04;100936.34;;;-2.91;100.00
41830;BME280;38614;43.472;23.936;2023-03-13T04:09:53;100951.03;;;-2.87;100.00
41830;BME280;38614;43.472;23.936;2023-03-13T04:12:52;100954.09;;;-2.56;100.00
41830;BME280;38614;43.472;23.936;2023-03-13T04:15:40;100951.56;;;-2.63;100.00
41830;BME280;38614;43.472;23.936;2023-03-13T04:18:30;100926.91;;;-2.89;100.00
41830;BME280;38614;43.472;23.936;2023-03-13T04:21:18;100928.75;;;-2.94;100.00
41830;BME280;38614;43.472;23.936;2023-03-13T04:24:15;100945.09;;;-2.84;100.00
41830;BME280;38614;43.472;23.936;2023-03-13T04:27:04;100959.31;;;-2.72;100.00
41830;BME280;38614;43.472;23.936;2023-03-13T04:29:53;100971.28;;;-2.68;100.00
41830;BME280;38614;43.472;23.936;2023-03-13T04:33:07;100966.19;;;-2.64;100.00
41830;BME280;38614;43.472;23.936;2023-03-13T04:36:06;100959.75;;;-2.80;100.00
41830;BME280;38614;43.472;23.936;2023-03-13T04:39:17;100934.06;;;-2.99;100.00
41830;BME280;38614;43.472;23.936;2023-03-13T04:42:23;100974.28;;;-2.86;100.00
41830;BME280;38614;43.472;23.936;2023-03-13T04:45:40;100974.19;;;-2.91;100.00
41830;BME280;38614;43.472;23.936;2023-03-13T04:49:00;100980.69;;;-2.70;100.00
41830;BME280;38614;43.472;23.936;2023-03-13T04:52:08;100953.28;;;-2.79;100.00
41830;BME280;38614;43.472;23.936;2023-03-13T04:55:28;100985.94;;;-2.64;100.00
41830;BME280;38614;43.472;23.936;2023-03-13T04:58:41;100999.47;;;-2.64;100.00
41830;BME280;38614;43.472;23.936;2023-03-13T05:01:55;101001.72;;;-2.77;100.00
41830;BME280;38614;43.472;23.936;2023-03-13T05:05:03;101005.13;;;-2.65;100.00
41830;BME280;38614;43.472;23.936;2023-03-13T05:08:26;101008.53;;;-2.75;100.00
41830;BME280;38614;43.472;23.936;2023-03-13T05:11:26;100982.25;;;-2.96;100.00
41830;BME280;38614;43.472;23.936;2023-03-13T05:14:35;101021.28;;;-2.70;100.00
41830;BME280;38614;43.472;23.936;2023-03-13T05:17:41;101011.91;;;-2.63;100.00
41830;BME280;38614;43.472;23.936;2023-03-13T05:20:45;101019.09;;;-2.51;100.00
41830;BME280;38614;43.472;23.936;2023-03-13T05:24:01;100985.38;;;-2.66;100.00
41830;BME280;38614;43.472;23.936;2023-03-13T05:27:07;101012.63;;;-2.50;100.00
41830;BME280;38614;43.472;23.936;2023-03-13T05:30:05;101028.06;;;-2.29;100.00
41830;BME280;38614;43.472;23.936;2023-03-13T05:33:13;101005.59;;;-2.30;100.00
41830;BME280;38614;43.472;23.936;2023-03-13T05:36:30;101009.50;;;-1.34;100.00
41830;BME280;38614;43.472;23.936;2023-03-13T05:39:36;101012.22;;;0.28;100.00
41830;BME280;38614;43.472;23.936;2023-03-13T05:42:42;101011.66;;;1.12;100.00
41830;BME280;38614;43.472;23.936;2023-03-13T05:45:53;101017.59;;;1.40;100.00
41830;BME280;38614;43.472;23.936;2023-03-13T05:48:56;101012.56;;;1.73;100.00
41830;BME280;38614;43.472;23.936;2023-03-13T05:52:03;100931.47;;;1.54;100.00
41830;BME280;38614;43.472;23.936;2023-03-13T05:55:09;101025.34;;;2.32;100.00
41830;BME280;38614;43.472;23.936;2023-03-13T05:57:59;100985.97;;;2.04;100.00
41830;BME280;38614;43.472;23.936;2023-03-13T06:01:18;100975.53;;;2.55;100.00
41830;BME280;38614;43.472;23.936;2023-03-13T06:04:14;101000.81;;;3.24;100.00
41830;BME280;38614;43.472;23.936;2023-03-13T06:07:03;100984.06;;;3.78;100.00
41830;BME280;38614;43.472;23.936;2023-03-13T06:09:51;100995.13;;;4.11;100.00
41830;BME280;38614;43.472;23.936;2023-03-13T06:12:39;100998.19;;;4.61;100.00
41830;BME280;38614;43.472;23.936;2023-03-13T06:15:30;100964.56;;;4.74;100.00
41830;BME280;38614;43.472;23.936;2023-03-13T06:18:27;101012.19;;;5.65;100.00
41830;BME280;38614;43.472;23.936;2023-03-13T06:21:14;101013.13;;;6.61;100.00
41830;BME280;38614;43.472;23.936;2023-03-13T06:24:02;100996.75;;;6.92;100.00
41830;BME280;38614;43.472;23.936;2023-03-13T06:26:50;101006.16;;;6.99;100.00
41830;BME280;38614;43.472;23.936;2023-03-13T06:29:38;100969.84;;;6.80;100.00
41830;BME280;38614;43.472;23.936;2023-03-13T06:32:27;101005.31;;;7.61;100.00
41830;BME280;38614;43.472;23.936;2023-03-13T06:35:15;100999.94;;;7.16;100.00
41830;BME280;38614;43.472;23.936;2023-03-13T06:38:03;100974.91;;;6.64;100.00
41830;BME280;38614;43.472;23.936;2023-03-13T06:40:50;100989.88;;;6.58;100.00
41830;BME280;38614;43.472;23.936;2023-03-13T06:43:38;100994.75;;;6.83;100.00
41830;BME280;38614;43.472;23.936;2023-03-13T06:46:29;100985.81;;;6.78;100.00
41830;BME280;38614;43.472;23.936;2023-03-13T06:49:17;100993.13;;;6.82;100.00
41830;BME280;38614;43.472;23.936;2023-03-13T06:52:05;100964.28;;;6.49;100.00
41830;BME280;38614;43.472;23.936;2023-03-13T06:54:53;100972.31;;;6.68;100.00
41830;BME280;38614;43.472;23.936;2023-03-13T06:57:40;100998.53;;;6.96;100.00
41830;BME280;38614;43.472;23.936;2023-03-13T07:00:28;100998.84;;;6.95;100.00
41830;BME280;38614;43.472;23.936;2023-03-13T07:03:16;100963.34;;;7.07;100.00
41830;BME280;38614;43.472;23.936;2023-03-13T07:06:04;100985.81;;;7.40;100.00
41830;BME280;38614;43.472;23.936;2023-03-13T07:08:52;100980.69;;;7.47;100.00
41830;BME280;38614;43.472;23.936;2023-03-13T07:11:40;100988.34;;;7.67;100.00
41830;BME280;38614;43.472;23.936;2023-03-13T07:14:28;100986.47;;;7.94;100.00
41830;BME280;38614;43.472;23.936;2023-03-13T07:17:15;100973.78;;;6.96;100.00
41830;BME280;38614;43.472;23.936;2023-03-13T07:20:04;100986.69;;;7.49;100.00
41830;BME280;38614;43.472;23.936;2023-03-13T07:22:53;100955.41;;;7.36;100.00
41830;BME280;38614;43.472;23.936;2023-03-13T07:25:40;100970.28;;;7.84;100.00
41830;BME280;38614;43.472;23.936;2023-03-13T07:28:29;100958.16;;;7.93;96.06
41830;BME280;38614;43.472;23.936;2023-03-13T07:31:19;100987.34;;;8.29;92.12
41830;BME280;38614;43.472;23.936;2023-03-13T07:34:07;100967.25;;;8.37;92.06
41830;BME280;38614;43.472;23.936;2023-03-13T07:36:55;100972.78;;;8.37;95.10
41830;BME280;38614;43.472;23.936;2023-03-13T07:39:42;100984.69;;;9.02;92.61
41830;BME280;38614;43.472;23.936;2023-03-13T07:42:30;100963.75;;;9.48;93.49
41830;BME280;38614;43.472;23.936;2023-03-13T07:45:18;100974.28;;;9.84;84.78
41830;BME280;38614;43.472;23.936;2023-03-13T07:48:06;100984.88;;;10.32;92.63
41830;BME280;38614;43.472;23.936;2023-03-13T07:50:54;101003.63;;;10.26;85.52
41830;BME280;38614;43.472;23.936;2023-03-13T07:53:45;100991.03;;;9.49;78.89
41830;BME280;38614;43.472;23.936;2023-03-13T07:56:34;100967.94;;;9.24;85.41
41830;BME280;38614;43.472;23.936;2023-03-13T07:59:21;100975.44;;;9.53;82.49
41830;BME280;38614;43.472;23.936;2023-03-13T08:02:11;100992.31;;;10.11;83.80
41830;BME280;38614;43.472;23.936;2023-03-13T08:05:00;100989.72;;;10.56;85.22
41830;BME280;38614;43.472;23.936;2023-03-13T08:07:47;100976.59;;;11.43;81.74
41830;BME280;38614;43.472;23.936;2023-03-13T08:10:35;100983.31;;;11.55;72.82
41830;BME280;38614;43.472;23.936;2023-03-13T08:13:23;100976.38;;;11.36;79.10
41830;BME280;38614;43.472;23.936;2023-03-13T08:16:13;100986.13;;;11.09;76.77
41830;BME280;38614;43.472;23.936;2023-03-13T08:19:03;100985.53;;;11.16;76.18
41830;BME280;38614;43.472;23.936;2023-03-13T08:21:52;100980.75;;;11.37;76.69
41830;BME280;38614;43.472;23.936;2023-03-13T08:24:40;100945.56;;;11.26;75.88
41830;BME280;38614;43.472;23.936;2023-03-13T08:27:29;100976.34;;;11.24;71.98
41830;BME280;38614;43.472;23.936;2023-03-13T08:30:16;100955.53;;;10.94;72.85
41830;BME280;38614;43.472;23.936;2023-03-13T08:33:04;100976.97;;;10.97;73.88
41830;BME280;38614;43.472;23.936;2023-03-13T08:35:54;100965.88;;;11.30;72.27
41830;BME280;38614;43.472;23.936;2023-03-13T08:38:42;100960.47;;;11.46;74.29
41830;BME280;38614;43.472;23.936;2023-03-13T08:41:34;100961.25;;;12.19;73.12
41830;BME280;38614;43.472;23.936;2023-03-13T08:44:22;100962.81;;;12.89;71.23
41830;BME280;38614;43.472;23.936;2023-03-13T08:47:10;100952.09;;;12.31;67.72
41830;BME280;38614;43.472;23.936;2023-03-13T08:49:58;100940.53;;;12.85;72.81
41830;BME280;38614;43.472;23.936;2023-03-13T08:52:45;100945.31;;;12.44;68.47
41830;BME280;38614;43.472;23.936;2023-03-13T08:55:33;100957.44;;;13.24;69.26
41830;BME280;38614;43.472;23.936;2023-03-13T08:58:21;100954.56;;;12.76;65.45
41830;BME280;38614;43.472;23.936;2023-03-13T09:01:13;100947.59;;;12.82;70.97
41830;BME280;38614;43.472;23.936;2023-03-13T09:04:02;100958.44;;;13.31;67.42
41830;BME280;38614;43.472;23.936;2023-03-13T09:06:51;100952.56;;;12.21;65.55
41830;BME280;38614;43.472;23.936;2023-03-13T09:09:42;100956.84;;;12.59;66.21
41830;BME280;38614;43.472;23.936;2023-03-13T09:12:36;100950.88;;;13.79;66.82
41830;BME280;38614;43.472;23.936;2023-03-13T09:15:24;100939.13;;;12.35;60.08
41830;BME280;38614;43.472;23.936;2023-03-13T09:18:12;100933.97;;;12.21;60.74
41830;BME280;38614;43.472;23.936;2023-03-13T09:21:00;100941.13;;;12.22;63.18
41830;BME280;38614;43.472;23.936;2023-03-13T09:23:49;100917.91;;;11.87;64.20
41830;BME280;38614;43.472;23.936;2023-03-13T09:26:36;100944.53;;;12.72;66.76
41830;BME280;38614;43.472;23.936;2023-03-13T09:29:28;100935.50;;;13.34;59.60
41830;BME280;38614;43.472;23.936;2023-03-13T09:32:16;100924.84;;;13.52;61.29
41830;BME280;38614;43.472;23.936;2023-03-13T09:35:07;100929.41;;;13.60;60.38
41830;BME280;38614;43.472;23.936;2023-03-13T09:37:55;100922.84;;;13.53;61.19
41830;BME280;38614;43.472;23.936;2023-03-13T09:40:47;100900.75;;;13.40;63.11
41830;BME280;38614;43.472;23.936;2023-03-13T09:47:06;100900.84;;;14.72;58.22
41830;BME280;38614;43.472;23.936;2023-03-13T09:50:11;100899.09;;;14.64;59.82
41830;BME280;38614;43.472;23.936;2023-03-13T09:53:33;100890.34;;;13.37;58.59
41830;BME280;38614;43.472;23.936;2023-03-13T09:56:39;100891.31;;;13.61;62.74
41830;BME280;38614;43.472;23.936;2023-03-13T10:02:30;100850.19;;;13.86;63.47
41830;BME280;38614;43.472;23.936;2023-03-13T10:05:24;100872.91;;;14.46;62.13
41830;BME280;38614;43.472;23.936;2023-03-13T10:08:16;100864.28;;;15.20;63.10
41830;BME280;38614;43.472;23.936;2023-03-13T10:11:31;100868.38;;;14.80;58.90
41830;BME280;38614;43.472;23.936;2023-03-13T10:17:38;100852.19;;;15.08;58.37
41830;BME280;38614;43.472;23.936;2023-03-13T10:20:28;100855.19;;;14.77;58.63
41830;BME280;38614;43.472;23.936;2023-03-13T10:23:36;100846.31;;;13.36;56.56
41830;BME280;38614;43.472;23.936;2023-03-13T10:26:31;100821.97;;;14.03;61.89
41830;BME280;38614;43.472;23.936;2023-03-13T10:29:21;100827.59;;;14.26;62.11
41830;BME280;38614;43.472;23.936;2023-03-13T10:32:13;100827.53;;;14.22;60.83
41830;BME280;38614;43.472;23.936;2023-03-13T10:35:01;100830.38;;;14.45;59.93
41830;BME280;38614;43.472;23.936;2023-03-13T10:37:49;100825.25;;;14.28;57.54
41830;BME280;38614;43.472;23.936;2023-03-13T10:40:56;100827.25;;;13.89;59.03
41830;BME280;38614;43.472;23.936;2023-03-13T10:43:52;100799.50;;;13.54;61.52
41830;BME280;38614;43.472;23.936;2023-03-13T10:46:42;100815.31;;;14.27;59.84
41830;BME280;38614;43.472;23.936;2023-03-13T10:49:31;100779.38;;;14.38;59.05
41830;BME280;38614;43.472;23.936;2023-03-13T10:52:40;100778.03;;;14.51;59.11
41830;BME280;38614;43.472;23.936;2023-03-13T10:55:29;100790.78;;;14.75;60.23
41830;BME280;38614;43.472;23.936;2023-03-13T10:58:23;100784.56;;;13.97;57.80
41830;BME280;38614;43.472;23.936;2023-03-13T11:04:30;100760.94;;;14.30;61.67
41830;BME280;38614;43.472;23.936;2023-03-13T11:07:36;100766.63;;;13.75;56.05
41830;BME280;38614;43.472;23.936;2023-03-13T11:10:27;100754.78;;;13.39;55.70
41830;BME280;38614;43.472;23.936;2023-03-13T11:13:39;100779.06;;;14.01;57.81
41830;BME280;38614;43.472;23.936;2023-03-13T11:16:29;100762.09;;;14.06;58.11
41830;BME280;38614;43.472;23.936;2023-03-13T11:25:24;100750.38;;;14.16;56.87
41830;BME280;38614;43.472;23.936;2023-03-13T11:31:20;100749.31;;;14.66;56.37
41830;BME280;38614;43.472;23.936;2023-03-13T11:34:57;100736.09;;;13.75;56.01
41830;BME280;38614;43.472;23.936;2023-03-13T11:37:43;100705.38;;;13.87;54.90
41830;BME280;38614;43.472;23.936;2023-03-13T11:40:38;100718.81;;;14.73;58.02
41830;BME280;38614;43.472;23.936;2023-03-13T11:53:05;100696.19;;;14.75;57.34
41830;BME280;38614;43.472;23.936;2023-03-13T11:59:19;100695.59;;;14.62;56.09
41830;BME280;38614;43.472;23.936;2023-03-13T12:02:27;100704.97;;;14.08;54.25
41830;BME280;38614;43.472;23.936;2023-03-13T12:05:19;100701.94;;;13.75;53.87
41830;BME280;38614;43.472;23.936;2023-03-13T12:08:40;100698.31;;;14.36;54.78
41830;BME280;38614;43.472;23.936;2023-03-13T12:11:45;100700.63;;;13.88;53.22
41830;BME280;38614;43.472;23.936;2023-03-13T12:17:40;100683.69;;;13.74;52.95
41830;BME280;38614;43.472;23.936;2023-03-13T12:20:40;100675.50;;;14.04;53.64
41830;BME280;38614;43.472;23.936;2023-03-13T12:26:58;100667.53;;;14.02;52.91
41830;BME280;38614;43.472;23.936;2023-03-13T12:29:59;100665.75;;;14.36;54.54
41830;BME280;38614;43.472;23.936;2023-03-13T12:33:23;100661.09;;;14.67;53.39
41830;BME280;38614;43.472;23.936;2023-03-13T12:36:29;100657.47;;;14.89;53.86
41830;BME280;38614;43.472;23.936;2023-03-13T12:39:33;100663.09;;;13.97;52.55
41830;BME280;38614;43.472;23.936;2023-03-13T12:45:17;100660.41;;;14.47;52.83
41830;BME280;38614;43.472;23.936;2023-03-13T13:00:14;100660.88;;;14.07;52.89
41830;BME280;38614;43.472;23.936;2023-03-13T13:06:11;100655.53;;;14.67;52.98
41830;BME280;38614;43.472;23.936;2023-03-13T13:09:14;100656.06;;;14.76;51.21
41830;BME280;38614;43.472;23.936;2023-03-13T13:12:23;100652.88;;;14.74;51.56
41830;BME280;38614;43.472;23.936;2023-03-13T13:15:19;100646.09;;;14.48;50.74
41830;BME280;38614;43.472;23.936;2023-03-13T13:18:46;100642.31;;;14.60;52.79
41830;BME280;38614;43.472;23.936;2023-03-13T13:21:37;100649.56;;;14.65;52.68
41830;BME280;38614;43.472;23.936;2023-03-13T13:24:40;100647.94;;;14.90;52.79
41830;BME280;38614;43.472;23.936;2023-03-13T13:36:24;100614.47;;;14.57;50.25
41830;BME280;38614;43.472;23.936;2023-03-13T13:39:52;100633.81;;;14.49;51.78
41830;BME280;38614;43.472;23.936;2023-03-13T13:43:03;100624.78;;;14.56;51.89
41830;BME280;38614;43.472;23.936;2023-03-13T13:46:28;100621.28;;;14.36;52.87
41830;BME280;38614;43.472;23.936;2023-03-13T13:49:19;100627.03;;;14.24;52.70
41830;BME280;38614;43.472;23.936;2023-03-13T13:54:56;100625.72;;;13.95;51.87
41830;BME280;38614;43.472;23.936;2023-03-13T13:57:45;100613.34;;;13.89;51.98
41830;BME280;38614;43.472;23.936;2023-03-13T14:00:44;100606.19;;;13.88;54.03
41830;BME280;38614;43.472;23.936;2023-03-13T14:03:33;100609.91;;;13.76;52.73
41830;BME280;38614;43.472;23.936;2023-03-13T14:06:31;100616.63;;;13.52;53.09
41830;BME280;38614;43.472;23.936;2023-03-13T14:09:57;100608.38;;;13.36;54.96
41830;BME280;38614;43.472;23.936;2023-03-13T14:12:52;100603.44;;;13.26;55.99
41830;BME280;38614;43.472;23.936;2023-03-13T14:15:42;100608.66;;;13.12;54.29
41830;BME280;38614;43.472;23.936;2023-03-13T14:18:31;100609.16;;;12.98;55.10
41830;BME280;38614;43.472;23.936;2023-03-13T14:21:23;100612.47;;;13.04;55.40
41830;BME280;38614;43.472;23.936;2023-03-13T14:24:13;100603.03;;;13.08;53.76
41830;BME280;38614;43.472;23.936;2023-03-13T14:27:13;100581.34;;;12.75;54.59
41830;BME280;38614;43.472;23.936;2023-03-13T14:30:04;100604.66;;;12.74;54.48
41830;BME280;38614;43.472;23.936;2023-03-13T14:32:52;100601.84;;;12.71;54.37
41830;BME280;38614;43.472;23.936;2023-03-13T14:35:41;100600.00;;;12.59;56.00
41830;BME280;38614;43.472;23.936;2023-03-13T14:38:29;100609.97;;;12.64;54.96
41830;BME280;38614;43.472;23.936;2023-03-13T14:41:43;100613.75;;;12.55;54.22
41830;BME280;38614;43.472;23.936;2023-03-13T14:44:32;100601.25;;;12.46;55.57
41830;BME280;38614;43.472;23.936;2023-03-13T14:47:27;100573.97;;;12.29;54.80
41830;BME280;38614;43.472;23.936;2023-03-13T14:50:22;100603.84;;;12.54;55.10
41830;BME280;38614;43.472;23.936;2023-03-13T14:53:15;100588.13;;;12.43;55.52
41830;BME280;38614;43.472;23.936;2023-03-13T14:56:15;100584.75;;;12.34;55.22
41830;BME280;38614;43.472;23.936;2023-03-13T14:59:18;100604.34;;;12.25;55.52
41830;BME280;38614;43.472;23.936;2023-03-13T15:02:27;100600.59;;;12.17;55.55
41830;BME280;38614;43.472;23.936;2023-03-13T15:05:32;100598.78;;;12.09;55.57
41830;BME280;38614;43.472;23.936;2023-03-13T15:08:22;100591.31;;;11.94;54.91
41830;BME280;38614;43.472;23.936;2023-03-13T15:11:40;100597.72;;;11.98;55.39
41830;BME280;38614;43.472;23.936;2023-03-13T15:14:35;100601.75;;;11.85;54.43
41830;BME280;38614;43.472;23.936;2023-03-13T15:17:26;100577.31;;;11.59;54.66
41830;BME280;38614;43.472;23.936;2023-03-13T15:20:15;100590.19;;;11.67;56.01
41830;BME280;38614;43.472;23.936;2023-03-13T15:23:10;100606.72;;;11.63;55.36
41830;BME280;38614;43.472;23.936;2023-03-13T15:26:00;100597.94;;;11.61;55.58
41830;BME280;38614;43.472;23.936;2023-03-13T15:28:48;100616.00;;;11.55;56.08
41830;BME280;38614;43.472;23.936;2023-03-13T15:31:36;100605.59;;;11.52;56.68
41830;BME280;38614;43.472;23.936;2023-03-13T15:34:27;100600.84;;;11.37;56.64
41830;BME280;38614;43.472;23.936;2023-03-13T15:37:15;100604.94;;;11.27;55.47
41830;BME280;38614;43.472;23.936;2023-03-13T15:40:05;100597.16;;;11.17;56.15
41830;BME280;38614;43.472;23.936;2023-03-13T15:42:54;100604.53;;;11.13;57.47
41830;BME280;38614;43.472;23.936;2023-03-13T15:45:43;100595.25;;;10.93;56.65
41830;BME280;38614;43.472;23.936;2023-03-13T15:48:31;100597.81;;;10.86;57.33
41830;BME280;38614;43.472;23.936;2023-03-13T15:51:19;100595.63;;;10.79;58.02
41830;BME280;38614;43.472;23.936;2023-03-13T15:54:07;100580.91;;;10.75;58.15
41830;BME280;38614;43.472;23.936;2023-03-13T15:56:54;100579.47;;;10.53;59.41
41830;BME280;38614;43.472;23.936;2023-03-13T15:59:42;100584.50;;;10.51;59.83
41830;BME280;38614;43.472;23.936;2023-03-13T16:02:30;100591.91;;;10.47;59.20
41830;BME280;38614;43.472;23.936;2023-03-13T16:05:18;100576.16;;;10.23;59.92
41830;BME280;38614;43.472;23.936;2023-03-13T16:08:08;100580.16;;;10.14;59.74